createdAt,value
2023-05-14T00:01:14.894Z,7.92
2023-05-14T00:03:41.530Z,7.90
2023-05-14T00:06:08.945Z,7.88
2023-05-14T00:08:35.692Z,7.97
2023-05-14T00:11:02.190Z,7.91
2023-05-14T00:13:28.955Z,7.95
2023-05-14T00:15:55.494Z,7.97
2023-05-14T00:18:21.912Z,8.06
2023-05-14T00:20:48.379Z,8.09
2023-05-14T00:23:14.714Z,8.14
2023-05-14T00:25:41.124Z,8.04
2023-05-14T00:28:07.507Z,7.94
2023-05-14T00:30:34.861Z,8.04
2023-05-14T00:33:01.377Z,7.96
2023-05-14T00:35:27.920Z,7.97
2023-05-14T00:37:54.280Z,8.02
2023-05-14T00:40:25.682Z,8.05
2023-05-14T00:42:52.378Z,7.98
2023-05-14T00:45:18.859Z,8.04
2023-05-14T00:47:45.502Z,7.94
2023-05-14T00:50:12.254Z,7.98
2023-05-14T00:52:39.100Z,8.03
2023-05-14T00:55:06.751Z,8.05
2023-05-14T00:57:34.649Z,8.03
2023-05-14T01:00:01.162Z,8.11
2023-05-14T01:02:27.637Z,8.12
2023-05-14T01:04:54.606Z,8.17
2023-05-14T01:07:37.513Z,8.16
2023-05-14T01:10:45.685Z,8.16
2023-05-14T01:13:33.684Z,8.07
2023-05-14T01:16:01.596Z,7.94
2023-05-14T01:18:28.369Z,8.00
2023-05-14T01:20:54.903Z,8.00
2023-05-14T01:23:21.256Z,7.99
2023-05-14T01:25:47.681Z,7.99
2023-05-14T01:28:19.188Z,7.94
2023-05-14T01:31:27.698Z,7.85
2023-05-14T01:33:58.172Z,7.81
2023-05-14T01:36:25.205Z,7.86
2023-05-14T01:38:51.825Z,7.83
2023-05-14T01:41:19.353Z,7.82
2023-05-14T01:43:45.762Z,7.78
2023-05-14T01:46:12.187Z,7.65
2023-05-14T01:48:38.551Z,7.67
2023-05-14T01:51:05.002Z,7.64
2023-05-14T01:53:31.384Z,7.72
2023-05-14T01:55:57.774Z,7.66
2023-05-14T01:58:24.168Z,7.65
2023-05-14T02:00:50.532Z,7.61
2023-05-14T02:03:16.913Z,7.59
2023-05-14T02:05:43.278Z,7.56
2023-05-14T02:08:09.631Z,7.49
2023-05-14T02:10:36.015Z,7.54
2023-05-14T02:13:03.852Z,7.59
2023-05-14T02:15:30.224Z,7.57
2023-05-14T02:17:56.629Z,7.55
2023-05-14T02:20:23.138Z,7.55
2023-05-14T02:22:49.723Z,7.45
2023-05-14T02:25:16.075Z,7.40
2023-05-14T02:27:42.481Z,7.36
2023-05-14T02:30:09.990Z,7.44
2023-05-14T02:32:36.951Z,7.45
2023-05-14T02:35:03.520Z,7.46
2023-05-14T02:37:29.889Z,7.36
2023-05-14T02:39:56.237Z,7.31
2023-05-14T02:42:22.586Z,7.28
2023-05-14T02:44:48.994Z,7.38
2023-05-14T02:47:15.355Z,7.40
2023-05-14T02:49:41.705Z,7.47
2023-05-14T02:52:08.073Z,7.40
2023-05-14T02:54:34.650Z,7.44
2023-05-14T02:57:01.013Z,7.39
2023-05-14T02:59:27.574Z,7.25
2023-05-14T03:01:54.405Z,7.27
2023-05-14T03:04:21.183Z,7.23
2023-05-14T03:06:47.573Z,7.16
2023-05-14T03:09:14.335Z,7.15
2023-05-14T03:11:40.763Z,7.13
2023-05-14T03:14:07.106Z,7.22
2023-05-14T03:16:33.506Z,7.19
2023-05-14T03:18:59.979Z,7.19
2023-05-14T03:21:26.380Z,7.12
2023-05-14T03:23:53.670Z,7.17
2023-05-14T03:26:21.525Z,7.19
2023-05-14T03:28:47.954Z,7.12
2023-05-14T03:31:14.401Z,7.19
2023-05-14T03:33:41.191Z,7.18
2023-05-14T03:36:07.678Z,7.12
2023-05-14T03:38:34.051Z,7.09
2023-05-14T03:41:00.510Z,7.11
2023-05-14T03:43:26.852Z,7.06
2023-05-14T03:45:53.247Z,6.99
2023-05-14T03:48:20.400Z,7.06
2023-05-14T03:50:46.912Z,7.16
2023-05-14T03:53:13.302Z,7.20
2023-05-14T03:55:39.694Z,7.17
2023-05-14T03:58:10.897Z,7.13
2023-05-14T04:00:37.302Z,7.20
2023-05-14T04:03:03.948Z,7.15
2023-05-14T04:05:30.403Z,7.23
2023-05-14T04:07:58.148Z,7.25
2023-05-14T04:10:24.670Z,7.13
2023-05-14T04:12:51.197Z,7.27
2023-05-14T04:15:17.567Z,7.26
2023-05-14T04:17:43.971Z,7.36
2023-05-14T04:20:10.570Z,7.40
2023-05-14T04:22:36.939Z,7.48
2023-05-14T04:25:03.385Z,7.56
2023-05-14T04:27:29.896Z,7.58
2023-05-14T04:29:56.382Z,7.73
2023-05-14T04:32:22.814Z,7.77
2023-05-14T04:34:49.290Z,8.00
2023-05-14T04:37:15.846Z,8.16
2023-05-14T04:39:42.499Z,8.22
2023-05-14T04:42:09.609Z,8.39
2023-05-14T04:44:37.544Z,8.47
2023-05-14T04:47:04.476Z,8.63
2023-05-14T04:49:31.074Z,8.71
2023-05-14T04:51:57.447Z,8.89
2023-05-14T04:54:24.007Z,8.98
2023-05-14T04:56:51.027Z,9.19
2023-05-14T04:59:17.439Z,9.41
2023-05-14T05:01:43.916Z,9.65
2023-05-14T05:04:10.440Z,9.99
2023-05-14T05:06:36.923Z,10.20
2023-05-14T05:09:03.582Z,10.59
2023-05-14T05:11:29.940Z,10.81
2023-05-14T05:13:56.325Z,10.98
2023-05-14T05:16:22.803Z,11.09
2023-05-14T05:18:49.311Z,11.32
2023-05-14T05:21:15.690Z,11.58
2023-05-14T05:23:42.048Z,11.89
2023-05-14T05:26:08.500Z,11.87
2023-05-14T05:28:34.873Z,11.99
2023-05-14T05:31:01.237Z,12.30
2023-05-14T05:33:27.621Z,12.38
2023-05-14T05:35:53.978Z,12.62
2023-05-14T05:38:20.677Z,12.89
2023-05-14T05:40:47.122Z,12.98
2023-05-14T05:43:15.183Z,13.08
2023-05-14T05:45:41.599Z,13.16
2023-05-14T05:48:08.065Z,12.85
2023-05-14T05:50:34.587Z,12.72
2023-05-14T05:53:00.984Z,12.58
2023-05-14T05:55:27.327Z,12.66
2023-05-14T05:57:53.861Z,12.98
2023-05-14T06:00:20.922Z,13.30
2023-05-14T06:02:47.418Z,13.18
2023-05-14T06:05:13.817Z,13.08
2023-05-14T06:07:40.250Z,12.76
2023-05-14T06:10:07.211Z,12.43
2023-05-14T06:12:33.702Z,12.34
2023-05-14T06:15:00.148Z,12.12
2023-05-14T06:17:27.164Z,12.10
2023-05-14T06:19:53.625Z,12.43
2023-05-14T06:22:20.087Z,13.03
2023-05-14T06:24:46.456Z,13.55
2023-05-14T06:27:12.819Z,13.70
2023-05-14T06:29:39.236Z,13.67
2023-05-14T06:32:06.066Z,13.68
2023-05-14T06:34:32.492Z,13.40
2023-05-14T06:36:59.074Z,13.23
2023-05-14T06:39:25.579Z,13.45
2023-05-14T06:41:51.919Z,13.59
2023-05-14T06:44:19.422Z,13.75
2023-05-14T06:46:45.814Z,13.89
2023-05-14T06:49:12.372Z,13.77
2023-05-14T06:51:39.050Z,13.66
2023-05-14T06:54:05.544Z,13.42
2023-05-14T06:56:31.952Z,13.23
2023-05-14T06:58:58.311Z,13.15
2023-05-14T07:01:24.706Z,13.09
2023-05-14T07:03:51.209Z,12.95
2023-05-14T07:06:17.680Z,12.78
2023-05-14T07:08:45.965Z,12.60
2023-05-14T07:11:16.177Z,12.68
2023-05-14T07:13:42.947Z,12.65
2023-05-14T07:16:12.307Z,12.62
2023-05-14T07:18:38.732Z,12.58
2023-05-14T07:21:06.459Z,12.60
2023-05-14T07:23:36.082Z,12.51
2023-05-14T07:26:03.006Z,12.49
2023-05-14T07:28:29.360Z,12.51
2023-05-14T07:30:55.790Z,12.50
2023-05-14T07:33:22.698Z,12.41
2023-05-14T07:35:49.189Z,12.47
2023-05-14T07:38:15.788Z,12.55
2023-05-14T07:40:42.436Z,12.57
2023-05-14T07:43:09.810Z,12.64
2023-05-14T07:45:37.181Z,13.23
2023-05-14T07:48:03.870Z,13.61
2023-05-14T07:50:30.972Z,13.62
2023-05-14T07:52:57.567Z,13.66
2023-05-14T07:55:23.921Z,13.66
2023-05-14T07:57:50.357Z,13.67
2023-05-14T08:00:17.086Z,13.55
2023-05-14T08:02:44.346Z,13.55
2023-05-14T08:05:10.987Z,13.61
2023-05-14T08:07:37.355Z,13.57
2023-05-14T08:10:04.212Z,13.71
2023-05-14T08:12:30.697Z,13.67
2023-05-14T08:14:57.049Z,13.66
2023-05-14T08:17:23.434Z,13.84
2023-05-14T08:19:49.828Z,14.03
2023-05-14T08:22:16.335Z,14.05
2023-05-14T08:24:43.096Z,14.04
2023-05-14T08:27:09.818Z,14.30
2023-05-14T08:29:36.218Z,14.37
2023-05-14T08:32:11.621Z,14.48
2023-05-14T08:34:43.963Z,14.46
2023-05-14T08:37:10.467Z,14.43
2023-05-14T08:39:36.864Z,14.12
2023-05-14T08:42:06.321Z,14.01
2023-05-14T08:44:45.437Z,14.00
2023-05-14T08:47:15.332Z,13.75
2023-05-14T08:49:47.570Z,13.80
2023-05-14T08:52:18.061Z,13.83
2023-05-14T08:54:45.445Z,14.35
2023-05-14T08:57:13.018Z,14.57
2023-05-14T08:59:39.423Z,14.57
2023-05-14T09:02:06.975Z,14.39
2023-05-14T09:04:34.525Z,14.13
2023-05-14T09:07:02.617Z,14.12
2023-05-14T09:09:29.627Z,13.93
2023-05-14T09:11:56.053Z,13.86
2023-05-14T09:14:22.579Z,13.96
2023-05-14T09:16:50.794Z,14.48
2023-05-14T09:19:21.111Z,15.05
2023-05-14T09:21:49.053Z,15.01
2023-05-14T09:24:21.025Z,14.91
2023-05-14T09:26:51.714Z,14.87
2023-05-14T09:29:18.489Z,14.99
2023-05-14T09:31:45.248Z,15.31
2023-05-14T09:34:11.797Z,15.41
2023-05-14T09:36:38.318Z,15.62
2023-05-14T09:39:04.903Z,15.69
2023-05-14T09:41:31.295Z,15.58
2023-05-14T09:43:57.915Z,15.48
2023-05-14T09:46:24.270Z,15.18
2023-05-14T09:48:50.618Z,15.39
2023-05-14T09:51:20.954Z,15.33
2023-05-14T09:53:47.402Z,15.11
2023-05-14T09:56:14.468Z,15.03
2023-05-14T09:58:40.855Z,15.04
2023-05-14T10:01:07.749Z,15.16
2023-05-14T10:03:34.379Z,15.02
2023-05-14T10:06:05.730Z,15.09
2023-05-14T10:08:36.096Z,15.05
2023-05-14T10:11:08.188Z,14.97
2023-05-14T10:13:40.844Z,15.05
2023-05-14T10:16:20.175Z,15.04
2023-05-14T10:18:51.713Z,14.92
2023-05-14T10:21:20.925Z,14.98
2023-05-14T10:23:48.890Z,14.93
2023-05-14T10:26:15.846Z,15.03
2023-05-14T10:28:43.049Z,15.06
2023-05-14T10:31:10.320Z,14.99
2023-05-14T10:33:52.137Z,14.87
2023-05-14T10:36:18.675Z,14.94
2023-05-14T10:38:45.302Z,14.83
2023-05-14T10:41:18.001Z,14.97
2023-05-14T10:43:44.504Z,14.95
2023-05-14T10:46:13.800Z,14.99
2023-05-14T10:48:44.063Z,15.16
2023-05-14T10:51:11.314Z,15.25
2023-05-14T10:53:42.286Z,15.32
2023-05-14T10:56:10.723Z,15.39
2023-05-14T10:58:38.762Z,15.35
2023-05-14T11:01:09.256Z,15.29
2023-05-14T11:03:41.844Z,15.54
2023-05-14T11:06:10.086Z,15.46
2023-05-14T11:08:36.922Z,15.30
2023-05-14T11:11:03.306Z,15.22
2023-05-14T11:13:30.093Z,15.18
2023-05-14T11:16:00.752Z,15.23
2023-05-14T11:18:33.462Z,15.28
2023-05-14T11:21:01.138Z,15.33
2023-05-14T11:23:28.242Z,15.31
2023-05-14T11:25:56.476Z,15.51
2023-05-14T11:28:24.516Z,15.48
2023-05-14T11:30:51.799Z,15.63
2023-05-14T11:33:19.067Z,15.33
2023-05-14T11:35:46.510Z,15.20
2023-05-14T11:38:21.162Z,15.30
2023-05-14T11:40:58.464Z,15.26
2023-05-14T11:43:28.317Z,15.32
2023-05-14T11:45:55.752Z,15.33
2023-05-14T11:48:24.772Z,15.39
2023-05-14T11:50:52.682Z,15.31
2023-05-14T11:53:20.023Z,15.27
2023-05-14T11:55:48.239Z,15.23
2023-05-14T11:58:15.807Z,15.19
2023-05-14T12:00:44.737Z,15.13
2023-05-14T12:03:11.842Z,15.26
2023-05-14T12:05:41.338Z,15.14
2023-05-14T12:08:27.180Z,15.13
2023-05-14T12:10:54.035Z,15.16
2023-05-14T12:13:20.510Z,15.25
2023-05-14T12:15:58.059Z,15.40
2023-05-14T12:18:25.675Z,15.37
2023-05-14T12:20:52.147Z,15.50
2023-05-14T12:23:29.301Z,15.32
2023-05-14T12:26:00.906Z,15.24
2023-05-14T12:28:28.652Z,15.26
2023-05-14T12:30:59.312Z,15.11
2023-05-14T12:33:28.550Z,15.16
2023-05-14T12:36:00.563Z,15.13
2023-05-14T12:38:31.879Z,15.07
2023-05-14T12:40:58.235Z,15.12
2023-05-14T12:43:24.601Z,15.31
2023-05-14T12:45:50.978Z,15.40
2023-05-14T12:48:17.367Z,15.39
2023-05-14T12:50:43.717Z,15.36
2023-05-14T12:53:10.216Z,15.52
2023-05-14T12:55:36.977Z,15.60
2023-05-14T12:58:03.612Z,15.66
2023-05-14T13:00:29.956Z,15.69
2023-05-14T13:02:56.329Z,15.75
2023-05-14T13:05:22.892Z,15.83
2023-05-14T13:07:52.427Z,15.85
2023-05-14T13:10:19.001Z,15.80
2023-05-14T13:12:45.431Z,15.88
2023-05-14T13:15:11.885Z,15.95
2023-05-14T13:17:38.370Z,15.94
2023-05-14T13:20:05.249Z,16.00
2023-05-14T13:22:31.588Z,15.99
2023-05-14T13:24:58.775Z,16.01
2023-05-14T13:27:25.126Z,16.06
2023-05-14T13:29:51.458Z,16.24
2023-05-14T13:32:17.822Z,16.38
2023-05-14T13:34:44.245Z,16.44
2023-05-14T13:37:10.994Z,16.29
2023-05-14T13:39:37.343Z,16.34
2023-05-14T13:42:03.993Z,16.35
2023-05-14T13:44:30.432Z,16.38
2023-05-14T13:46:56.899Z,16.41
2023-05-14T13:49:23.276Z,16.45
2023-05-14T13:51:49.682Z,16.46
2023-05-14T13:54:16.054Z,16.34
2023-05-14T13:56:42.447Z,16.23
2023-05-14T13:59:08.882Z,16.23
2023-05-14T14:01:35.281Z,16.20
2023-05-14T14:04:01.743Z,16.07
2023-05-14T14:06:30.786Z,16.02
2023-05-14T14:08:57.193Z,15.93
2023-05-14T14:11:23.550Z,15.92
2023-05-14T14:13:49.946Z,15.91
2023-05-14T14:16:16.383Z,16.03
2023-05-14T14:18:43.268Z,15.98
2023-05-14T14:21:10.271Z,16.08
2023-05-14T14:23:36.671Z,16.02
2023-05-14T14:26:03.676Z,16.09
2023-05-14T14:28:30.293Z,16.08
2023-05-14T14:30:56.672Z,16.08
2023-05-14T14:33:23.069Z,16.22
2023-05-14T14:35:49.416Z,16.25
2023-05-14T14:38:15.788Z,16.45
2023-05-14T14:40:42.165Z,16.64
2023-05-14T14:43:08.545Z,16.70
2023-05-14T14:45:34.907Z,16.69
2023-05-14T14:48:22.897Z,16.75
2023-05-14T14:50:49.518Z,16.72
2023-05-14T14:53:15.878Z,16.79
2023-05-14T14:55:42.309Z,16.87
2023-05-14T14:58:08.798Z,16.73
2023-05-14T15:00:35.433Z,16.95
2023-05-14T15:03:01.880Z,16.94
2023-05-14T15:05:28.300Z,16.93
2023-05-14T15:07:54.638Z,16.93
2023-05-14T15:10:20.976Z,16.81
2023-05-14T15:12:47.363Z,16.78
2023-05-14T15:15:13.904Z,16.64
2023-05-14T15:17:40.302Z,16.56
2023-05-14T15:20:07.460Z,16.59
2023-05-14T15:22:33.856Z,16.48
2023-05-14T15:25:00.214Z,16.45
2023-05-14T15:27:26.893Z,16.41
2023-05-14T15:29:53.265Z,16.24
2023-05-14T15:32:19.706Z,16.24
2023-05-14T15:34:46.092Z,16.10
2023-05-14T15:37:12.433Z,16.05
2023-05-14T15:39:38.838Z,15.97
2023-05-14T15:42:05.472Z,15.91
2023-05-14T15:44:32.051Z,15.64
2023-05-14T15:46:59.649Z,15.58
2023-05-14T15:49:25.999Z,15.39
2023-05-14T15:51:52.432Z,15.31
2023-05-14T15:54:18.797Z,15.41
2023-05-14T15:56:45.200Z,15.32
2023-05-14T15:59:11.613Z,15.31
2023-05-14T16:01:38.026Z,15.37
2023-05-14T16:04:04.507Z,15.44
2023-05-14T16:06:31.053Z,15.45
2023-05-14T16:08:57.520Z,15.44
2023-05-14T16:11:23.880Z,15.45
2023-05-14T16:13:50.232Z,15.41
2023-05-14T16:16:16.775Z,15.38
2023-05-14T16:18:43.783Z,15.39
2023-05-14T16:21:10.182Z,15.39
2023-05-14T16:23:36.711Z,15.35
2023-05-14T16:26:03.107Z,15.40
2023-05-14T16:28:29.560Z,15.48
2023-05-14T16:30:55.929Z,15.41
2023-05-14T16:33:22.264Z,15.37
2023-05-14T16:35:49.786Z,15.34
2023-05-14T16:38:16.133Z,15.29
2023-05-14T16:40:42.716Z,15.22
2023-05-14T16:43:09.051Z,15.22
2023-05-14T16:45:37.222Z,15.17
2023-05-14T16:48:04.275Z,15.05
2023-05-14T16:50:30.698Z,15.06
2023-05-14T16:52:57.156Z,15.03
2023-05-14T16:55:23.868Z,14.93
2023-05-14T16:57:50.561Z,14.90
2023-05-14T17:00:17.835Z,14.83
2023-05-14T17:02:44.199Z,14.85
2023-05-14T17:05:10.572Z,14.71
2023-05-14T17:07:39.152Z,14.81
2023-05-14T17:10:06.417Z,14.70
2023-05-14T17:12:32.776Z,14.71
2023-05-14T17:14:59.153Z,14.71
2023-05-14T17:17:25.561Z,14.67
2023-05-14T17:19:51.898Z,14.61
2023-05-14T17:22:18.317Z,14.68
2023-05-14T17:24:44.684Z,14.57
2023-05-14T17:27:11.277Z,14.55
2023-05-14T17:29:37.690Z,14.46
2023-05-14T17:32:04.800Z,14.43
2023-05-14T17:34:31.237Z,14.39
2023-05-14T17:36:57.867Z,14.39
2023-05-14T17:39:24.304Z,14.31
2023-05-14T17:41:51.183Z,14.29
2023-05-14T17:44:17.543Z,14.25
2023-05-14T17:46:45.146Z,14.21
2023-05-14T17:49:11.927Z,14.27
2023-05-14T17:51:38.434Z,14.19
2023-05-14T17:54:04.832Z,14.21
2023-05-14T17:56:31.423Z,14.20
2023-05-14T17:58:57.775Z,14.11
2023-05-14T18:01:24.247Z,14.17
2023-05-14T18:03:50.915Z,14.22
2023-05-14T18:06:17.534Z,14.08
2023-05-14T18:08:43.919Z,13.95
2023-05-14T18:11:10.276Z,13.90
2023-05-14T18:13:36.616Z,13.85
2023-05-14T18:16:03.716Z,13.80
2023-05-14T18:18:30.753Z,13.76
2023-05-14T18:20:57.550Z,13.67
2023-05-14T18:23:23.985Z,13.63
2023-05-14T18:25:50.406Z,13.62
2023-05-14T18:28:16.889Z,13.53
2023-05-14T18:30:43.561Z,13.59
2023-05-14T18:33:10.306Z,13.73
2023-05-14T18:35:36.815Z,13.66
2023-05-14T18:38:03.348Z,13.71
2023-05-14T18:40:29.691Z,13.61
2023-05-14T18:42:56.725Z,13.60
2023-05-14T18:45:24.218Z,13.61
2023-05-14T18:47:51.447Z,13.66
2023-05-14T18:50:17.873Z,13.54
2023-05-14T18:52:44.247Z,13.49
2023-05-14T18:55:10.654Z,13.46
2023-05-14T18:57:37.114Z,13.47
2023-05-14T19:00:05.035Z,13.39
2023-05-14T19:02:31.502Z,13.29
2023-05-14T19:04:57.982Z,13.38
2023-05-14T19:07:24.452Z,13.36
2023-05-14T19:09:51.130Z,13.33
2023-05-14T19:12:17.528Z,13.22
2023-05-14T19:14:43.896Z,13.15
2023-05-14T19:17:10.908Z,13.17
2023-05-14T19:19:37.744Z,13.20
2023-05-14T19:22:04.258Z,13.16
2023-05-14T19:24:30.708Z,13.02
2023-05-14T19:26:57.142Z,12.95
2023-05-14T19:29:23.624Z,12.96
2023-05-14T19:31:50.060Z,12.99
2023-05-14T19:34:16.649Z,12.93
2023-05-14T19:36:43.032Z,12.91
2023-05-14T19:39:09.655Z,13.03
2023-05-14T19:41:36.083Z,12.90
2023-05-14T19:44:02.483Z,12.83
2023-05-14T19:46:28.945Z,12.77
2023-05-14T19:48:55.403Z,12.69
2023-05-14T19:51:21.744Z,12.67
2023-05-14T19:53:48.122Z,12.71
2023-05-14T19:56:15.325Z,12.72
2023-05-14T19:58:41.742Z,12.63
2023-05-14T20:01:08.311Z,12.66
2023-05-14T20:03:34.770Z,12.64
2023-05-14T20:06:01.774Z,12.61
2023-05-14T20:08:29.073Z,12.55
2023-05-14T20:10:55.533Z,12.52
2023-05-14T20:13:23.209Z,12.49
2023-05-14T20:15:51.566Z,12.46
2023-05-14T20:18:17.984Z,12.39
2023-05-14T20:20:44.310Z,12.34
2023-05-14T20:23:10.682Z,12.29
2023-05-14T20:25:37.010Z,12.26
2023-05-14T20:28:04.046Z,12.21
2023-05-14T20:30:30.857Z,12.18
2023-05-14T20:32:57.427Z,12.15
2023-05-14T20:35:23.887Z,12.13
2023-05-14T20:37:50.443Z,12.09
2023-05-14T20:40:17.014Z,12.01
2023-05-14T20:42:43.461Z,12.01
2023-05-14T20:45:10.381Z,11.94
2023-05-14T20:47:36.876Z,11.91
2023-05-14T20:50:04.558Z,11.81
2023-05-14T20:52:30.944Z,11.81
2023-05-14T20:54:58.763Z,11.83
2023-05-14T20:57:27.789Z,11.85
2023-05-14T20:59:54.223Z,11.77
2023-05-14T21:02:20.842Z,11.79
2023-05-14T21:04:47.472Z,11.76
2023-05-14T21:07:13.862Z,11.74
2023-05-14T21:09:40.281Z,11.72
2023-05-14T21:12:06.958Z,11.75
2023-05-14T21:14:33.333Z,11.69
2023-05-14T21:16:59.688Z,11.74
2023-05-14T21:19:26.049Z,11.68
2023-05-14T21:21:52.409Z,11.71
2023-05-14T21:24:18.989Z,11.65
2023-05-14T21:26:45.711Z,11.62
2023-05-14T21:29:12.180Z,11.62
2023-05-14T21:31:38.584Z,11.66
2023-05-14T21:34:05.011Z,11.69
2023-05-14T21:36:31.459Z,11.67
2023-05-14T21:38:57.822Z,11.63
2023-05-14T21:41:24.210Z,11.62
2023-05-14T21:43:50.574Z,11.57
2023-05-14T21:46:16.983Z,11.62
2023-05-14T21:48:43.430Z,11.55
2023-05-14T21:51:10.057Z,11.61
2023-05-14T21:53:36.458Z,11.58
2023-05-14T21:56:02.891Z,11.57
2023-05-14T21:58:29.302Z,11.55
2023-05-14T22:00:55.671Z,11.48
2023-05-14T22:03:22.126Z,11.49
2023-05-14T22:05:49.171Z,11.48
2023-05-14T22:08:17.479Z,11.45
2023-05-14T22:10:44.149Z,11.51
2023-05-14T22:13:10.958Z,11.46
2023-05-14T22:15:37.855Z,11.45
2023-05-14T22:18:04.533Z,11.42
2023-05-14T22:20:31.033Z,11.37
2023-05-14T22:22:57.389Z,11.41
2023-05-14T22:25:23.949Z,11.38
2023-05-14T22:27:50.546Z,11.33
2023-05-14T22:30:16.905Z,11.36
2023-05-14T22:32:43.340Z,11.29
2023-05-14T22:35:09.777Z,11.30
2023-05-14T22:37:36.164Z,11.27
2023-05-14T22:40:05.056Z,11.27
2023-05-14T22:42:31.400Z,11.18
2023-05-14T22:44:57.777Z,11.28
2023-05-14T22:47:25.150Z,11.25
2023-05-14T22:49:51.659Z,11.20
2023-05-14T22:52:18.877Z,11.21
2023-05-14T22:54:46.574Z,11.14
2023-05-14T22:57:12.980Z,11.13
2023-05-14T22:59:39.512Z,11.13
2023-05-14T23:02:06.765Z,11.11
2023-05-14T23:04:33.423Z,11.03
2023-05-14T23:06:59.853Z,11.13
2023-05-14T23:09:26.312Z,11.07
2023-05-14T23:11:52.665Z,10.97
2023-05-14T23:14:19.615Z,11.00
2023-05-14T23:16:46.030Z,10.95
2023-05-14T23:19:12.624Z,10.92
2023-05-14T23:21:39.115Z,10.88
2023-05-14T23:24:05.949Z,10.81
2023-05-14T23:26:32.581Z,10.74
2023-05-14T23:28:58.942Z,10.61
2023-05-14T23:31:25.437Z,10.58
2023-05-14T23:33:51.817Z,10.58
2023-05-14T23:36:18.295Z,10.57
2023-05-14T23:38:44.839Z,10.48
2023-05-14T23:41:11.266Z,10.38
2023-05-14T23:43:37.703Z,10.34
2023-05-14T23:46:04.181Z,10.20
2023-05-14T23:48:30.988Z,10.18
2023-05-14T23:50:57.352Z,10.18
2023-05-14T23:53:23.780Z,10.14
2023-05-14T23:55:50.380Z,10.07
2023-05-14T23:58:16.906Z,9.93
